X  Close Metar Aviation Weather Data     EBAW Antwerp International Airport (Deurne)
Temperature
11°C Temperature
6°C Dewpoint
72% Humidity



Wind
10 KM/H
6 MPH
3 M/S
5 KTS



130°
SE
Current Conditions

Partly Cloudy Partly Cloudy
Pressure 1000 (hPa) - 29.53 (inHg)
Visibility 6 (mile) - 9.7 (km)
Airport
Airport-code EBAW

Location: Antwerp International Airport (Deurne)
Distance: 90 (km)

Metar:
EBAW 031150Z 13005KT 100V160 9999 FEW013 11/06 Q1000 TEMPO BKN004

Time: 03-03-2024 11:50 CET